Summerford, Ohio
Current Conditions -  °F | °C
As of 5:15 AM on Thursday 29 Jan 2015 (Local Time) from KUYF Reporting Station
Clear Clear  
Wind Chill: 20°   Ceiling: Unl
Heat Index: 28°   Visibility: 10mi
Dew Point: 19°   Wind: 9mph
Humidity: 69%   Direction: 160°SSE
Pressure: 29.95"   Gusts: 17mph
Location:  39.8789°N, 83.4302°W
Report Text: KUYF 291015Z AUTO 16008G15KT 10SM CLR M02/M07 A2995 RMK AO2
Loading
Personal Weather Stations






























Interactive Weather Map New forecast layout! Learn more

10-Day Weather Forecast

Advertisements
Track Severe Weather on mobile